Elm Grove, Ohio
Current Conditions -  °F | °C
As of 9:54 PM on Friday 26 Dec 2014 (Local Time) from KRZT Reporting Station
Clear Clear  
Wind Chill: 40°   Ceiling: Unl
Heat Index: 43°   Visibility: 10mi
Dew Point: 32°   Wind: 5mph
Humidity: 66%   Direction: 200°SSW
Pressure: 30.19"   Gusts: NA
Location:  39.0491°N, 83.1454°W
Report Text: KRZT 270254Z AUTO 20004KT 10SM CLR 06/00 A3019 RMK AO2
Loading
Personal Weather Stations






























Interactive Weather Map New forecast layout! Learn more

10-Day Weather Forecast

Advertisements
Track Severe Weather on mobile